sensor_id;sensor_type;location;lat;lon;timestamp;temperature;humidity
49052;DHT22;34866;48.670;18.260;2023-02-28T00:00:46;115.30;2176.00
49052;DHT22;34866;48.670;18.260;2023-02-28T00:03:12;115.30;2176.00
49052;DHT22;34866;48.670;18.260;2023-02-28T00:05:37;115.20;2176.00
49052;DHT22;34866;48.670;18.260;2023-02-28T00:08:03;115.20;2176.00
49052;DHT22;34866;48.670;18.260;2023-02-28T00:10:31;115.20;2176.00
49052;DHT22;34866;48.670;18.260;2023-02-28T00:13:06;115.20;2176.00
49052;DHT22;34866;48.670;18.260;2023-02-28T00:15:32;115.30;2176.00
49052;DHT22;34866;48.670;18.260;2023-02-28T00:17:59;115.30;2176.00
49052;DHT22;34866;48.670;18.260;2023-02-28T00:20:25;115.30;2176.00
49052;DHT22;34866;48.670;18.260;2023-02-28T00:22:53;115.20;2176.00
49052;DHT22;34866;48.670;18.260;2023-02-28T00:25:22;115.40;2176.00
49052;DHT22;34866;48.670;18.260;2023-02-28T00:27:48;115.40;2176.00
49052;DHT22;34866;48.670;18.260;2023-02-28T00:30:17;115.20;2176.00
49052;DHT22;34866;48.670;18.260;2023-02-28T00:32:45;115.30;2176.00
49052;DHT22;34866;48.670;18.260;2023-02-28T00:35:12;115.30;2176.00
49052;DHT22;34866;48.670;18.260;2023-02-28T00:37:39;115.50;2176.00
49052;DHT22;34866;48.670;18.260;2023-02-28T00:40:07;115.50;2176.00
49052;DHT22;34866;48.670;18.260;2023-02-28T00:42:36;115.30;2176.00
49052;DHT22;34866;48.670;18.260;2023-02-28T00:45:02;115.40;2176.00
49052;DHT22;34866;48.670;18.260;2023-02-28T00:47:30;115.50;2176.00
49052;DHT22;34866;48.670;18.260;2023-02-28T00:49:57;115.40;2176.00
49052;DHT22;34866;48.670;18.260;2023-02-28T00:52:22;115.50;2176.00
49052;DHT22;34866;48.670;18.260;2023-02-28T00:54:48;115.40;2176.00
49052;DHT22;34866;48.670;18.260;2023-02-28T00:57:14;115.40;2176.00
49052;DHT22;34866;48.670;18.260;2023-02-28T00:59:39;115.40;2176.00
49052;DHT22;34866;48.670;18.260;2023-02-28T01:02:08;115.50;2176.00
49052;DHT22;34866;48.670;18.260;2023-02-28T01:04:34;115.50;2176.00
49052;DHT22;34866;48.670;18.260;2023-02-28T01:06:59;115.50;2176.00
49052;DHT22;34866;48.670;18.260;2023-02-28T01:09:25;115.40;2176.00
49052;DHT22;34866;48.670;18.260;2023-02-28T01:11:51;115.50;2176.00
49052;DHT22;34866;48.670;18.260;2023-02-28T01:14:17;115.40;2176.00
49052;DHT22;34866;48.670;18.260;2023-02-28T01:16:43;115.60;2176.00
49052;DHT22;34866;48.670;18.260;2023-02-28T01:19:09;115.70;2176.00
49052;DHT22;34866;48.670;18.260;2023-02-28T01:21:35;115.60;2176.00
49052;DHT22;34866;48.670;18.260;2023-02-28T01:24:02;115.60;2176.00
49052;DHT22;34866;48.670;18.260;2023-02-28T01:26:28;115.70;2176.00
49052;DHT22;34866;48.670;18.260;2023-02-28T01:28:55;115.60;2176.00
49052;DHT22;34866;48.670;18.260;2023-02-28T01:31:28;115.50;2176.00
49052;DHT22;34866;48.670;18.260;2023-02-28T01:34:00;115.70;2176.00
49052;DHT22;34866;48.670;18.260;2023-02-28T01:36:27;115.60;2176.00
49052;DHT22;34866;48.670;18.260;2023-02-28T01:38:53;115.70;2176.00
49052;DHT22;34866;48.670;18.260;2023-02-28T01:41:28;115.50;2176.00
49052;DHT22;34866;48.670;18.260;2023-02-28T01:47:10;115.30;2176.00
49052;DHT22;34866;48.670;18.260;2023-02-28T01:49:36;115.30;2176.00
49052;DHT22;34866;48.670;18.260;2023-02-28T01:52:02;115.40;2176.00
49052;DHT22;34866;48.670;18.260;2023-02-28T01:54:34;115.40;2176.00
49052;DHT22;34866;48.670;18.260;2023-02-28T01:57:28;115.30;2176.00
49052;DHT22;34866;48.670;18.260;2023-02-28T02:02:24;115.30;2176.00
49052;DHT22;34866;48.670;18.260;2023-02-28T02:07:20;115.20;2176.00
49052;DHT22;34866;48.670;18.260;2023-02-28T02:09:46;115.20;2176.00
49052;DHT22;34866;48.670;18.260;2023-02-28T02:15:14;115.20;2176.00
49052;DHT22;34866;48.670;18.260;2023-02-28T02:17:51;90.50;2176.00
49052;DHT22;34866;48.670;18.260;2023-02-28T02:26:42;90.40;2176.00
49052;DHT22;34866;48.670;18.260;2023-02-28T02:29:45;90.30;2176.00
49052;DHT22;34866;48.670;18.260;2023-02-28T02:38:09;90.30;2176.00
49052;DHT22;34866;48.670;18.260;2023-02-28T02:43:28;90.30;2176.00
49052;DHT22;34866;48.670;18.260;2023-02-28T02:46:21;90.30;2176.00
49052;DHT22;34866;48.670;18.260;2023-02-28T02:48:50;90.10;2176.00
49052;DHT22;34866;48.670;18.260;2023-02-28T02:51:20;90.20;2176.00
49052;DHT22;34866;48.670;18.260;2023-02-28T02:53:55;90.10;2176.00
49052;DHT22;34866;48.670;18.260;2023-02-28T02:56:25;90.10;2176.00
49052;DHT22;34866;48.670;18.260;2023-02-28T02:58:55;90.20;2176.00
49052;DHT22;34866;48.670;18.260;2023-02-28T03:01:25;90.20;2176.00
49052;DHT22;34866;48.670;18.260;2023-02-28T03:03:59;90.10;2176.00
49052;DHT22;34866;48.670;18.260;2023-02-28T03:06:26;90.20;2176.00
49052;DHT22;34866;48.670;18.260;2023-02-28T03:08:52;90.20;2176.00
49052;DHT22;34866;48.670;18.260;2023-02-28T03:11:19;90.10;2176.00
49052;DHT22;34866;48.670;18.260;2023-02-28T03:23:21;90.40;2176.00
49052;DHT22;34866;48.670;18.260;2023-02-28T03:28:41;90.40;2176.00
49052;DHT22;34866;48.670;18.260;2023-02-28T03:31:25;90.30;2176.00
49052;DHT22;34866;48.670;18.260;2023-02-28T03:34:12;90.30;2176.00
49052;DHT22;34866;48.670;18.260;2023-02-28T03:36:48;90.30;2176.00
49052;DHT22;34866;48.670;18.260;2023-02-28T03:39:34;90.40;2176.00
49052;DHT22;34866;48.670;18.260;2023-02-28T03:42:07;90.40;2176.00
49052;DHT22;34866;48.670;18.260;2023-02-28T03:47:21;90.40;2176.00
49052;DHT22;34866;48.670;18.260;2023-02-28T03:50:07;90.40;2176.00
49052;DHT22;34866;48.670;18.260;2023-02-28T03:52:38;90.40;2176.00
49052;DHT22;34866;48.670;18.260;2023-02-28T03:55:10;90.50;2176.00
49052;DHT22;34866;48.670;18.260;2023-02-28T03:58:00;90.40;2176.00
49052;DHT22;34866;48.670;18.260;2023-02-28T04:00:35;90.40;2176.00
49052;DHT22;34866;48.670;18.260;2023-02-28T04:03:03;90.30;2176.00
49052;DHT22;34866;48.670;18.260;2023-02-28T04:05:33;90.30;2176.00
49052;DHT22;34866;48.670;18.260;2023-02-28T04:08:10;90.40;2176.00
49052;DHT22;34866;48.670;18.260;2023-02-28T04:10:36;90.20;2176.00
49052;DHT22;34866;48.670;18.260;2023-02-28T04:13:01;90.20;2176.00
49052;DHT22;34866;48.670;18.260;2023-02-28T04:15:27;90.30;2176.00
49052;DHT22;34866;48.670;18.260;2023-02-28T04:17:53;90.30;2176.00
49052;DHT22;34866;48.670;18.260;2023-02-28T04:20:19;90.30;2176.00
49052;DHT22;34866;48.670;18.260;2023-02-28T04:22:44;90.30;2176.00
49052;DHT22;34866;48.670;18.260;2023-02-28T04:25:10;90.40;2176.00
49052;DHT22;34866;48.670;18.260;2023-02-28T04:27:36;90.40;2176.00
49052;DHT22;34866;48.670;18.260;2023-02-28T04:30:01;90.40;2176.00
49052;DHT22;34866;48.670;18.260;2023-02-28T04:32:27;90.50;2176.00
49052;DHT22;34866;48.670;18.260;2023-02-28T04:34:56;90.50;2176.00
49052;DHT22;34866;48.670;18.260;2023-02-28T04:37:23;90.50;2176.00
49052;DHT22;34866;48.670;18.260;2023-02-28T04:39:53;90.50;2176.00
49052;DHT22;34866;48.670;18.260;2023-02-28T04:42:19;90.50;2176.00
49052;DHT22;34866;48.670;18.260;2023-02-28T04:44:45;90.50;2176.00
49052;DHT22;34866;48.670;18.260;2023-02-28T04:47:10;90.50;2176.00
49052;DHT22;34866;48.670;18.260;2023-02-28T04:49:36;115.20;2176.00
49052;DHT22;34866;48.670;18.260;2023-02-28T04:52:01;115.20;2176.00
49052;DHT22;34866;48.670;18.260;2023-02-28T04:54:28;115.30;2176.00
49052;DHT22;34866;48.670;18.260;2023-02-28T04:56:54;115.30;2176.00
49052;DHT22;34866;48.670;18.260;2023-02-28T04:59:20;115.30;2176.00
49052;DHT22;34866;48.670;18.260;2023-02-28T05:01:47;115.30;2176.00
49052;DHT22;34866;48.670;18.260;2023-02-28T05:04:13;115.30;2176.00
49052;DHT22;34866;48.670;18.260;2023-02-28T05:06:45;115.40;2176.00
49052;DHT22;34866;48.670;18.260;2023-02-28T05:09:10;115.50;2176.00
49052;DHT22;34866;48.670;18.260;2023-02-28T05:11:37;115.40;2176.00
49052;DHT22;34866;48.670;18.260;2023-02-28T05:14:07;115.30;2176.00
49052;DHT22;34866;48.670;18.260;2023-02-28T05:16:35;115.40;2176.00
49052;DHT22;34866;48.670;18.260;2023-02-28T05:19:01;115.30;2176.00
49052;DHT22;34866;48.670;18.260;2023-02-28T05:21:33;115.30;2176.00
49052;DHT22;34866;48.670;18.260;2023-02-28T05:24:07;115.50;2176.00
49052;DHT22;34866;48.670;18.260;2023-02-28T05:26:39;115.50;2176.00
49052;DHT22;34866;48.670;18.260;2023-02-28T05:29:05;115.50;2176.00
49052;DHT22;34866;48.670;18.260;2023-02-28T05:31:31;115.50;2176.00
49052;DHT22;34866;48.670;18.260;2023-02-28T05:33:57;115.40;2176.00
49052;DHT22;34866;48.670;18.260;2023-02-28T05:36:22;115.20;2176.00
49052;DHT22;34866;48.670;18.260;2023-02-28T05:38:50;115.20;2176.00
49052;DHT22;34866;48.670;18.260;2023-02-28T05:41:16;115.20;2176.00
49052;DHT22;34866;48.670;18.260;2023-02-28T05:43:42;115.20;2176.00
49052;DHT22;34866;48.670;18.260;2023-02-28T05:46:10;115.20;2176.00
49052;DHT22;34866;48.670;18.260;2023-02-28T05:48:37;115.20;2176.00
49052;DHT22;34866;48.670;18.260;2023-02-28T05:51:04;115.20;2176.00
49052;DHT22;34866;48.670;18.260;2023-02-28T05:53:30;90.50;2176.00
49052;DHT22;34866;48.670;18.260;2023-02-28T05:55:57;90.40;2176.00
49052;DHT22;34866;48.670;18.260;2023-02-28T05:58:23;90.30;2176.00
49052;DHT22;34866;48.670;18.260;2023-02-28T06:00:51;90.20;2176.00
49052;DHT22;34866;48.670;18.260;2023-02-28T06:03:16;90.30;2176.00
49052;DHT22;34866;48.670;18.260;2023-02-28T06:05:42;90.20;2176.00
49052;DHT22;34866;48.670;18.260;2023-02-28T06:08:08;90.10;2176.00
49052;DHT22;34866;48.670;18.260;2023-02-28T06:10:34;90.00;2176.00
49052;DHT22;34866;48.670;18.260;2023-02-28T06:13:01;90.00;2176.00
49052;DHT22;34866;48.670;18.260;2023-02-28T06:15:30;89.90;2176.00
49052;DHT22;34866;48.670;18.260;2023-02-28T06:17:56;89.80;2176.00
49052;DHT22;34866;48.670;18.260;2023-02-28T06:20:28;89.80;2176.00
49052;DHT22;34866;48.670;18.260;2023-02-28T06:22:58;89.70;2176.00
49052;DHT22;34866;48.670;18.260;2023-02-28T06:25:27;89.70;2176.00
49052;DHT22;34866;48.670;18.260;2023-02-28T06:27:53;89.60;2201.60
49052;DHT22;34866;48.670;18.260;2023-02-28T06:30:19;64.90;2201.60
49052;DHT22;34866;48.670;18.260;2023-02-28T06:32:50;64.80;2201.60
49052;DHT22;34866;48.670;18.260;2023-02-28T06:35:16;64.70;2201.60
49052;DHT22;34866;48.670;18.260;2023-02-28T06:37:41;64.50;2201.60
49052;DHT22;34866;48.670;18.260;2023-02-28T06:40:09;64.50;2201.60
49052;DHT22;34866;48.670;18.260;2023-02-28T06:42:35;64.50;2201.60
49052;DHT22;34866;48.670;18.260;2023-02-28T06:45:01;64.30;2201.60
49052;DHT22;34866;48.670;18.260;2023-02-28T06:47:30;64.20;2201.60
49052;DHT22;34866;48.670;18.260;2023-02-28T06:49:56;64.10;2201.60
49052;DHT22;34866;48.670;18.260;2023-02-28T06:52:21;64.00;2201.60
49052;DHT22;34866;48.670;18.260;2023-02-28T06:54:47;39.30;2201.60
49052;DHT22;34866;48.670;18.260;2023-02-28T06:57:26;39.30;2201.60
49052;DHT22;34866;48.670;18.260;2023-02-28T06:59:52;39.20;2201.60
49052;DHT22;34866;48.670;18.260;2023-02-28T07:02:18;39.10;2201.60
49052;DHT22;34866;48.670;18.260;2023-02-28T07:04:43;39.20;2201.60
49052;DHT22;34866;48.670;18.260;2023-02-28T07:07:11;39.10;2201.60
49052;DHT22;34866;48.670;18.260;2023-02-28T07:09:36;39.10;2201.60
49052;DHT22;34866;48.670;18.260;2023-02-28T07:12:02;39.00;2150.40
49052;DHT22;34866;48.670;18.260;2023-02-28T07:14:29;39.00;2073.60
49052;DHT22;34866;48.670;18.260;2023-02-28T07:16:54;38.80;2099.20
49052;DHT22;34866;48.670;18.260;2023-02-28T07:19:20;38.70;1817.60
49052;DHT22;34866;48.670;18.260;2023-02-28T07:21:46;38.60;1484.80
49052;DHT22;34866;48.670;18.260;2023-02-28T07:24:11;38.60;1459.20
49052;DHT22;34866;48.670;18.260;2023-02-28T07:26:37;38.50;1280.00
49052;DHT22;34866;48.670;18.260;2023-02-28T07:29:04;38.60;1177.60
49052;DHT22;34866;48.670;18.260;2023-02-28T07:31:32;13.70;1049.60
49052;DHT22;34866;48.670;18.260;2023-02-28T07:33:58;13.70;998.40
49052;DHT22;34866;48.670;18.260;2023-02-28T07:36:25;13.60;1254.40
49052;DHT22;34866;48.670;18.260;2023-02-28T07:38:51;13.60;896.00
49052;DHT22;34866;48.670;18.260;2023-02-28T07:41:19;13.50;716.80
49052;DHT22;34866;48.670;18.260;2023-02-28T07:43:45;13.50;921.60
49052;DHT22;34866;48.670;18.260;2023-02-28T07:46:13;13.60;742.40
49052;DHT22;34866;48.670;18.260;2023-02-28T07:48:43;13.40;512.00
49052;DHT22;34866;48.670;18.260;2023-02-28T07:51:09;13.30;230.40
49052;DHT22;34866;48.670;18.260;2023-02-28T07:53:35;13.30;409.60
49052;DHT22;34866;48.670;18.260;2023-02-28T07:56:02;13.30;563.20
49052;DHT22;34866;48.670;18.260;2023-02-28T07:58:29;12.90;460.80
49052;DHT22;34866;48.670;18.260;2023-02-28T08:00:56;13.20;563.20
49052;DHT22;34866;48.670;18.260;2023-02-28T08:03:23;13.20;409.60
49052;DHT22;34866;48.670;18.260;2023-02-28T08:05:49;13.00;460.80
49052;DHT22;34866;48.670;18.260;2023-02-28T08:08:16;0.00;358.40
49052;DHT22;34866;48.670;18.260;2023-02-28T08:10:42;0.00;460.80
49052;DHT22;34866;48.670;18.260;2023-02-28T08:13:08;0.00;307.20
49052;DHT22;34866;48.670;18.260;2023-02-28T08:15:34;0.00;281.60
49052;DHT22;34866;48.670;18.260;2023-02-28T08:18:02;0.00;128.00
49052;DHT22;34866;48.670;18.260;2023-02-28T08:20:28;0.00;128.00
49052;DHT22;34866;48.670;18.260;2023-02-28T08:22:55;0.00;204.80
49052;DHT22;34866;48.670;18.260;2023-02-28T08:25:20;0.00;6451.20
49052;DHT22;34866;48.670;18.260;2023-02-28T08:27:46;12.90;6451.20
49052;DHT22;34866;48.670;18.260;2023-02-28T08:30:13;0.20;6451.20
49052;DHT22;34866;48.670;18.260;2023-02-28T08:32:40;0.30;6451.20
49052;DHT22;34866;48.670;18.260;2023-02-28T08:35:07;0.40;6451.20
49052;DHT22;34866;48.670;18.260;2023-02-28T08:37:34;0.50;6451.20
49052;DHT22;34866;48.670;18.260;2023-02-28T08:40:00;0.60;6451.20
49052;DHT22;34866;48.670;18.260;2023-02-28T08:42:26;0.70;6451.20
49052;DHT22;34866;48.670;18.260;2023-02-28T08:44:52;0.80;6451.20
49052;DHT22;34866;48.670;18.260;2023-02-28T08:47:18;0.70;6451.20
49052;DHT22;34866;48.670;18.260;2023-02-28T08:49:43;0.70;6451.20
49052;DHT22;34866;48.670;18.260;2023-02-28T08:52:09;0.70;6451.20
49052;DHT22;34866;48.670;18.260;2023-02-28T08:54:35;0.80;6451.20
49052;DHT22;34866;48.670;18.260;2023-02-28T08:57:02;0.90;6451.20
49052;DHT22;34866;48.670;18.260;2023-02-28T08:59:29;25.70;6451.20
49052;DHT22;34866;48.670;18.260;2023-02-28T09:01:55;0.90;6451.20
49052;DHT22;34866;48.670;18.260;2023-02-28T09:04:20;25.70;6451.20
49052;DHT22;34866;48.670;18.260;2023-02-28T09:06:46;25.80;6451.20
49052;DHT22;34866;48.670;18.260;2023-02-28T09:09:14;0.90;6451.20
49052;DHT22;34866;48.670;18.260;2023-02-28T09:11:41;25.70;6451.20
49052;DHT22;34866;48.670;18.260;2023-02-28T09:14:07;25.70;6451.20
49052;DHT22;34866;48.670;18.260;2023-02-28T09:16:33;26.00;6451.20
49052;DHT22;34866;48.670;18.260;2023-02-28T09:18:59;26.30;6451.20
49052;DHT22;34866;48.670;18.260;2023-02-28T09:21:25;26.30;6451.20
49052;DHT22;34866;48.670;18.260;2023-02-28T09:23:51;26.30;6451.20
49052;DHT22;34866;48.670;18.260;2023-02-28T09:26:20;26.40;6451.20
49052;DHT22;34866;48.670;18.260;2023-02-28T09:28:45;26.50;6451.20
49052;DHT22;34866;48.670;18.260;2023-02-28T09:31:17;26.30;6451.20
49052;DHT22;34866;48.670;18.260;2023-02-28T09:33:47;51.20;256.00
49052;DHT22;34866;48.670;18.260;2023-02-28T09:36:14;51.40;307.20
49052;DHT22;34866;48.670;18.260;2023-02-28T09:38:40;26.50;6451.20
49052;DHT22;34866;48.670;18.260;2023-02-28T09:41:32;26.50;6451.20
49052;DHT22;34866;48.670;18.260;2023-02-28T09:44:04;51.30;6476.80
49052;DHT22;34866;48.670;18.260;2023-02-28T09:49:05;51.60;6476.80
49052;DHT22;34866;48.670;18.260;2023-02-28T09:52:03;51.60;6476.80
49052;DHT22;34866;48.670;18.260;2023-02-28T09:54:31;51.40;6476.80
49052;DHT22;34866;48.670;18.260;2023-02-28T09:57:31;51.50;6476.80
49052;DHT22;34866;48.670;18.260;2023-02-28T10:03:00;51.60;6476.80
49052;DHT22;34866;48.670;18.260;2023-02-28T10:08:28;51.60;6476.80
49052;DHT22;34866;48.670;18.260;2023-02-28T10:11:01;51.60;6476.80
49052;DHT22;34866;48.670;18.260;2023-02-28T10:16:11;52.10;6476.80
49052;DHT22;34866;48.670;18.260;2023-02-28T10:21:23;52.10;6476.80
49052;DHT22;34866;48.670;18.260;2023-02-28T10:23:55;77.50;6476.80
49052;DHT22;34866;48.670;18.260;2023-02-28T10:26:26;77.20;6476.80
49052;DHT22;34866;48.670;18.260;2023-02-28T10:28:54;102.70;6476.80
49052;DHT22;34866;48.670;18.260;2023-02-28T10:31:20;103.10;6476.80
49052;DHT22;34866;48.670;18.260;2023-02-28T10:33:47;102.90;6476.80
49052;DHT22;34866;48.670;18.260;2023-02-28T10:36:18;128.00;6502.40
49052;DHT22;34866;48.670;18.260;2023-02-28T10:38:45;103.20;6476.80
49052;DHT22;34866;48.670;18.260;2023-02-28T10:41:31;128.10;6502.40
49052;DHT22;34866;48.670;18.260;2023-02-28T10:44:21;128.00;6502.40
49052;DHT22;34866;48.670;18.260;2023-02-28T10:46:48;128.10;6502.40
49052;DHT22;34866;48.670;18.260;2023-02-28T10:49:26;102.60;6476.80
49052;DHT22;34866;48.670;18.260;2023-02-28T10:51:55;102.60;6476.80
49052;DHT22;34866;48.670;18.260;2023-02-28T10:59:44;102.90;6476.80
49052;DHT22;34866;48.670;18.260;2023-02-28T11:02:36;103.00;6476.80
49052;DHT22;34866;48.670;18.260;2023-02-28T11:05:40;103.20;6476.80
49052;DHT22;34866;48.670;18.260;2023-02-28T11:08:13;128.50;6502.40
49052;DHT22;34866;48.670;18.260;2023-02-28T11:10:43;128.90;6502.40
49052;DHT22;34866;48.670;18.260;2023-02-28T11:13:17;179.70;6502.40
49052;DHT22;34866;48.670;18.260;2023-02-28T11:15:57;180.10;6502.40
49052;DHT22;34866;48.670;18.260;2023-02-28T11:20:57;230.70;6502.40
49052;DHT22;34866;48.670;18.260;2023-02-28T11:23:26;179.80;6502.40
49052;DHT22;34866;48.670;18.260;2023-02-28T11:25:56;281.80;6528.00
49052;DHT22;34866;48.670;18.260;2023-02-28T11:28:35;281.80;6528.00
49052;DHT22;34866;48.670;18.260;2023-02-28T11:33:32;333.50;128.00
49052;DHT22;34866;48.670;18.260;2023-02-28T11:36:04;359.30;128.00
49052;DHT22;34866;48.670;18.260;2023-02-28T11:38:34;333.70;588.80
49052;DHT22;34866;48.670;18.260;2023-02-28T11:43:57;358.80;128.00
49052;DHT22;34866;48.670;18.260;2023-02-28T11:51:42;410.00;128.00
49052;DHT22;34866;48.670;18.260;2023-02-28T12:00:01;384.60;128.00
49052;DHT22;34866;48.670;18.260;2023-02-28T12:05:30;537.90;128.00
49052;DHT22;34866;48.670;18.260;2023-02-28T12:11:18;487.20;128.00
49052;DHT22;34866;48.670;18.260;2023-02-28T12:22:31;486.70;665.60
49052;DHT22;34866;48.670;18.260;2023-02-28T12:25:13;486.90;691.20
49052;DHT22;34866;48.670;18.260;2023-02-28T12:27:47;563.60;716.80
49052;DHT22;34866;48.670;18.260;2023-02-28T12:30:18;410.30;128.00
49052;DHT22;34866;48.670;18.260;2023-02-28T12:33:14;384.10;128.00
49052;DHT22;34866;48.670;18.260;2023-02-28T12:35:47;307.90;128.00
49052;DHT22;34866;48.670;18.260;2023-02-28T12:43:48;333.60;640.00
49052;DHT22;34866;48.670;18.260;2023-02-28T12:46:21;333.40;128.00
49052;DHT22;34866;48.670;18.260;2023-02-28T12:48:57;359.20;128.00
49052;DHT22;34866;48.670;18.260;2023-02-28T12:51:25;256.60;6502.40
49052;DHT22;34866;48.670;18.260;2023-02-28T12:54:24;205.20;6502.40
49052;DHT22;34866;48.670;18.260;2023-02-28T13:10:07;179.90;6502.40
49052;DHT22;34866;48.670;18.260;2023-02-28T13:12:34;205.00;6502.40
49052;DHT22;34866;48.670;18.260;2023-02-28T13:17:38;179.90;6502.40
49052;DHT22;34866;48.670;18.260;2023-02-28T13:20:15;179.50;6502.40
49052;DHT22;34866;48.670;18.260;2023-02-28T13:22:43;179.90;6502.40
49052;DHT22;34866;48.670;18.260;2023-02-28T13:25:49;179.60;6502.40
49052;DHT22;34866;48.670;18.260;2023-02-28T13:31:14;179.60;6502.40
49052;DHT22;34866;48.670;18.260;2023-02-28T13:36:31;179.40;6502.40
49052;DHT22;34866;48.670;18.260;2023-02-28T13:39:03;179.20;6502.40
49052;DHT22;34866;48.670;18.260;2023-02-28T13:44:20;179.30;6502.40
49052;DHT22;34866;48.670;18.260;2023-02-28T13:51:55;179.40;563.20
49052;DHT22;34866;48.670;18.260;2023-02-28T13:54:40;179.60;6502.40
49052;DHT22;34866;48.670;18.260;2023-02-28T14:00:19;179.70;6502.40
49052;DHT22;34866;48.670;18.260;2023-02-28T14:05:22;179.60;6502.40
49052;DHT22;34866;48.670;18.260;2023-02-28T14:07:56;179.50;563.20
49052;DHT22;34866;48.670;18.260;2023-02-28T14:10:41;179.90;6502.40
49052;DHT22;34866;48.670;18.260;2023-02-28T14:16:06;179.80;6502.40
49052;DHT22;34866;48.670;18.260;2023-02-28T14:18:36;179.70;6502.40
49052;DHT22;34866;48.670;18.260;2023-02-28T14:21:22;179.20;6502.40
49052;DHT22;34866;48.670;18.260;2023-02-28T14:24:03;179.40;6502.40
49052;DHT22;34866;48.670;18.260;2023-02-28T14:26:58;179.60;6502.40
49052;DHT22;34866;48.670;18.260;2023-02-28T14:29:58;179.90;6502.40
49052;DHT22;34866;48.670;18.260;2023-02-28T14:38:25;179.90;6502.40
49052;DHT22;34866;48.670;18.260;2023-02-28T14:40:55;179.50;6502.40
49052;DHT22;34866;48.670;18.260;2023-02-28T14:43:23;179.60;6502.40
49052;DHT22;34866;48.670;18.260;2023-02-28T14:45:58;205.10;6502.40
49052;DHT22;34866;48.670;18.260;2023-02-28T14:48:26;180.00;6502.40
49052;DHT22;34866;48.670;18.260;2023-02-28T14:50:55;179.60;6502.40
49052;DHT22;34866;48.670;18.260;2023-02-28T14:53:23;179.90;6502.40
49052;DHT22;34866;48.670;18.260;2023-02-28T14:55:50;204.90;6502.40
49052;DHT22;34866;48.670;18.260;2023-02-28T14:58:28;205.00;6502.40
49052;DHT22;34866;48.670;18.260;2023-02-28T15:00:56;204.80;6502.40
49052;DHT22;34866;48.670;18.260;2023-02-28T15:03:33;180.10;6502.40
49052;DHT22;34866;48.670;18.260;2023-02-28T15:06:04;205.00;6502.40
49052;DHT22;34866;48.670;18.260;2023-02-28T15:08:31;205.20;6502.40
49052;DHT22;34866;48.670;18.260;2023-02-28T15:11:19;205.30;6502.40
49052;DHT22;34866;48.670;18.260;2023-02-28T15:13:49;282.00;6528.00
49052;DHT22;34866;48.670;18.260;2023-02-28T15:16:32;308.10;128.00
49052;DHT22;34866;48.670;18.260;2023-02-28T15:19:03;358.60;128.00
49052;DHT22;34866;48.670;18.260;2023-02-28T15:21:34;358.70;128.00
49052;DHT22;34866;48.670;18.260;2023-02-28T15:24:17;333.60;128.00
49052;DHT22;34866;48.670;18.260;2023-02-28T15:26:54;333.10;128.00
49052;DHT22;34866;48.670;18.260;2023-02-28T15:29:23;332.80;128.00
49052;DHT22;34866;48.670;18.260;2023-02-28T15:34:46;179.80;6502.40
49052;DHT22;34866;48.670;18.260;2023-02-28T15:39:52;154.00;6502.40
49052;DHT22;34866;48.670;18.260;2023-02-28T15:42:21;153.70;6502.40
49052;DHT22;34866;48.670;18.260;2023-02-28T15:44:47;153.70;6502.40
49052;DHT22;34866;48.670;18.260;2023-02-28T15:47:21;153.60;6502.40
49052;DHT22;34866;48.670;18.260;2023-02-28T15:49:57;128.90;6502.40
49052;DHT22;34866;48.670;18.260;2023-02-28T15:52:37;153.60;6502.40
49052;DHT22;34866;48.670;18.260;2023-02-28T15:55:42;128.90;6502.40
49052;DHT22;34866;48.670;18.260;2023-02-28T15:58:11;128.70;6502.40
49052;DHT22;34866;48.670;18.260;2023-02-28T16:00:39;128.50;6502.40
49052;DHT22;34866;48.670;18.260;2023-02-28T16:03:32;128.20;6502.40
49052;DHT22;34866;48.670;18.260;2023-02-28T16:06:26;128.10;6502.40
49052;DHT22;34866;48.670;18.260;2023-02-28T16:08:52;103.30;6476.80
49052;DHT22;34866;48.670;18.260;2023-02-28T16:11:20;103.20;6476.80
49052;DHT22;34866;48.670;18.260;2023-02-28T16:13:47;103.20;6476.80
49052;DHT22;34866;48.670;18.260;2023-02-28T16:16:20;103.30;6476.80
49052;DHT22;34866;48.670;18.260;2023-02-28T16:18:46;103.20;6476.80
49052;DHT22;34866;48.670;18.260;2023-02-28T16:21:13;103.00;6476.80
49052;DHT22;34866;48.670;18.260;2023-02-28T16:23:39;102.90;6476.80
49052;DHT22;34866;48.670;18.260;2023-02-28T16:26:05;102.80;6476.80
49052;DHT22;34866;48.670;18.260;2023-02-28T16:28:36;102.70;6476.80
49052;DHT22;34866;48.670;18.260;2023-02-28T16:31:05;102.60;6476.80
49052;DHT22;34866;48.670;18.260;2023-02-28T16:33:32;102.50;6476.80
49052;DHT22;34866;48.670;18.260;2023-02-28T16:36:00;102.40;6476.80
49052;DHT22;34866;48.670;18.260;2023-02-28T16:38:26;77.70;6476.80
49052;DHT22;34866;48.670;18.260;2023-02-28T16:40:53;77.60;6476.80
49052;DHT22;34866;48.670;18.260;2023-02-28T16:43:23;77.40;6476.80
49052;DHT22;34866;48.670;18.260;2023-02-28T16:45:55;77.30;6476.80
49052;DHT22;34866;48.670;18.260;2023-02-28T16:48:22;77.20;6476.80
49052;DHT22;34866;48.670;18.260;2023-02-28T16:50:48;77.10;6476.80
49052;DHT22;34866;48.670;18.260;2023-02-28T16:53:13;77.00;6476.80
49052;DHT22;34866;48.670;18.260;2023-02-28T16:55:39;76.90;6476.80
49052;DHT22;34866;48.670;18.260;2023-02-28T16:58:05;76.80;6476.80
49052;DHT22;34866;48.670;18.260;2023-02-28T17:00:32;52.10;6476.80
49052;DHT22;34866;48.670;18.260;2023-02-28T17:02:57;51.90;6476.80
49052;DHT22;34866;48.670;18.260;2023-02-28T17:05:25;51.90;6476.80
49052;DHT22;34866;48.670;18.260;2023-02-28T17:07:51;51.80;6476.80
49052;DHT22;34866;48.670;18.260;2023-02-28T17:10:22;51.70;6476.80
49052;DHT22;34866;48.670;18.260;2023-02-28T17:12:50;51.60;128.00
49052;DHT22;34866;48.670;18.260;2023-02-28T17:15:18;51.40;6476.80
49052;DHT22;34866;48.670;18.260;2023-02-28T17:17:45;51.40;6476.80
49052;DHT22;34866;48.670;18.260;2023-02-28T17:20:16;51.40;6476.80
49052;DHT22;34866;48.670;18.260;2023-02-28T17:22:41;51.20;6476.80
49052;DHT22;34866;48.670;18.260;2023-02-28T17:25:08;26.50;6451.20
49052;DHT22;34866;48.670;18.260;2023-02-28T17:27:34;26.50;6451.20
49052;DHT22;34866;48.670;18.260;2023-02-28T17:30:00;26.40;6451.20